Time;durP1;ratioP1;P1;durP2;ratioP2;P2;SDS_P1;SDS_P2;PMS_P1;PMS_P2;Temp;Humidity;BMP_temperature;BMP_pressure;BME280_temperature;BME280_humidity;BME280_pressure;Samples;Min_cycle;Max_cycle;Signal;HPM_P1;HPM_P2
2022/12/26 00:01:38;;;;;;;;;;;17.00;66.20;;;;;;5013719;28;20311;-90
2022/12/26 00:04:04;;;;;;;;;;;17.00;66.30;;;;;;5012208;28;19913;-91
2022/12/26 00:06:30;;;;;;;;;;;17.10;66.40;;;;;;5012656;28;19924;-91
2022/12/26 00:08:56;;;;;;;;;;;17.00;66.40;;;;;;5013683;28;20345;-88
2022/12/26 00:11:22;;;;;;;;;;;17.10;66.30;;;;;;5012836;28;19924;-91
2022/12/26 00:13:52;;;;;;;;;;;17.00;66.40;;;;;;5012371;28;20356;-89
2022/12/26 00:16:19;;;;;;;;;;;17.00;66.40;;;;;;5012693;28;19917;-90
2022/12/26 00:18:45;;;;;;;;;;;17.00;66.40;;;;;;5011640;28;20014;-90
2022/12/26 00:21:12;;;;;;;;;;;17.00;66.30;;;;;;5011795;28;19980;-90
2022/12/26 00:23:38;;;;;;;;;;;17.00;66.40;;;;;;5012044;28;20310;-90
2022/12/26 00:26:04;;;;;;;;;;;17.00;66.30;;;;;;5011587;28;19992;-91
2022/12/26 00:28:29;;;;;;;;;;;17.00;66.40;;;;;;5013293;28;19992;-89
2022/12/26 00:30:55;;;;;;;;;;;17.00;66.30;;;;;;5012156;28;20361;-90
2022/12/26 00:33:20;;;;;;;;;;;17.00;66.40;;;;;;5011962;28;20344;-89
2022/12/26 00:35:46;;;;;;;;;;;17.00;66.30;;;;;;5012405;28;20324;-91
2022/12/26 00:38:11;;;;;;;;;;;17.00;66.40;;;;;;5012934;28;20265;-91
2022/12/26 00:40:42;;;;;;;;;;;17.00;66.40;;;;;;5012162;28;19928;-91
2022/12/26 00:43:10;;;;;;;;;;;17.00;66.40;;;;;;5011631;28;19920;-88
2022/12/26 00:45:36;;;;;;;;;;;17.00;66.40;;;;;;5013147;28;19921;-87
2022/12/26 00:48:01;;;;;;;;;;;17.00;66.40;;;;;;5013636;28;20412;-90
2022/12/26 00:50:27;;;;;;;;;;;17.00;66.30;;;;;;5016122;28;19929;-88
2022/12/26 00:52:52;;;;;;;;;;;17.00;66.40;;;;;;5013120;28;19918;-90
2022/12/26 00:55:18;;;;;;;;;;;17.00;66.30;;;;;;5013245;28;19925;-88
2022/12/26 00:57:43;;;;;;;;;;;17.00;66.20;;;;;;5012491;28;20291;-90
2022/12/26 01:00:09;;;;;;;;;;;17.00;66.20;;;;;;5012114;28;20364;-89
2022/12/26 01:02:38;;;;;;;;;;;17.00;66.20;;;;;;5011784;28;19909;-90
2022/12/26 01:05:07;;;;;;;;;;;17.00;66.30;;;;;;5014732;28;19918;-90
2022/12/26 01:07:36;;;;;;;;;;;17.00;66.30;;;;;;5013417;28;19949;-90
2022/12/26 01:10:03;;;;;;;;;;;17.00;66.10;;;;;;5011419;28;19924;-90
2022/12/26 01:12:29;;;;;;;;;;;17.00;66.20;;;;;;5013206;28;19910;-91
2022/12/26 01:14:55;;;;;;;;;;;17.00;66.10;;;;;;5011297;28;19964;-88
2022/12/26 01:17:20;;;;;;;;;;;17.10;66.00;;;;;;5014669;28;20272;-89
2022/12/26 01:19:46;;;;;;;;;;;17.10;65.90;;;;;;5015659;28;19917;-90
2022/12/26 01:22:11;;;;;;;;;;;17.10;65.90;;;;;;5011392;28;19909;-90
2022/12/26 01:24:37;;;;;;;;;;;17.10;65.80;;;;;;5012888;28;19975;-88
2022/12/26 01:27:02;;;;;;;;;;;17.10;65.90;;;;;;5017071;28;19917;-90
2022/12/26 01:29:28;;;;;;;;;;;17.10;65.70;;;;;;5015010;28;20556;-89
2022/12/26 01:31:53;;;;;;;;;;;17.10;65.80;;;;;;5011961;28;19963;-90
2022/12/26 01:34:19;;;;;;;;;;;17.10;65.80;;;;;;5011420;28;20015;-89
2022/12/26 01:36:44;;;;;;;;;;;17.10;65.70;;;;;;5010761;28;20345;-90
2022/12/26 01:39:09;;;;;;;;;;;17.10;65.70;;;;;;5011810;28;19918;-89
2022/12/26 01:41:35;;;;;;;;;;;17.10;65.70;;;;;;5012052;28;20004;-88
2022/12/26 01:44:02;;;;;;;;;;;17.00;65.80;;;;;;5015699;28;19944;-90
2022/12/26 01:46:37;;;;;;;;;;;17.10;65.90;;;;;;5015620;28;19917;-91
2022/12/26 01:49:25;;;;;;;;;;;17.00;65.80;;;;;;5015180;28;20277;-89
2022/12/26 01:52:00;;;;;;;;;;;17.00;65.90;;;;;;5000742;28;20399;-89
2022/12/26 01:54:28;;;;;;;;;;;17.00;65.90;;;;;;5015796;28;19929;-89
2022/12/26 01:56:53;;;;;;;;;;;17.00;65.80;;;;;;5015533;28;20364;-89
2022/12/26 01:59:21;;;;;;;;;;;17.00;65.70;;;;;;5015857;28;20017;-89
2022/12/26 02:01:49;;;;;;;;;;;17.00;65.80;;;;;;5014189;28;19910;-89
2022/12/26 02:07:02;;;;;;;;;;;17.00;65.70;;;;;;5023976;28;19917;-89
2022/12/26 02:09:27;;;;;;;;;;;16.90;65.60;;;;;;5015565;28;19949;-88
2022/12/26 02:11:57;;;;;;;;;;;16.90;65.80;;;;;;5019527;28;19924;-90
2022/12/26 02:14:23;;;;;;;;;;;16.90;65.80;;;;;;5014049;28;19922;-89
2022/12/26 02:16:48;;;;;;;;;;;16.90;65.80;;;;;;5015552;28;19955;-89
2022/12/26 02:19:22;;;;;;;;;;;16.90;65.70;;;;;;5017336;28;20366;-90
2022/12/26 02:21:47;;;;;;;;;;;16.90;65.70;;;;;;5017262;28;19917;-90
2022/12/26 02:24:32;;;;;;;;;;;16.90;65.80;;;;;;5019229;28;19925;-90
2022/12/26 02:27:00;;;;;;;;;;;16.80;65.60;;;;;;5018134;28;19914;-89
2022/12/26 02:29:40;;;;;;;;;;;16.80;65.60;;;;;;5013791;28;19961;-90
2022/12/26 02:32:38;;;;;;;;;;;16.80;65.50;;;;;;5017857;28;19921;-88
2022/12/26 02:35:30;;;;;;;;;;;16.80;65.50;;;;;;4971616;28;19917;-88
2022/12/26 02:37:55;;;;;;;;;;;16.70;65.40;;;;;;5016177;28;20019;-90
2022/12/26 02:40:24;;;;;;;;;;;16.70;65.30;;;;;;5018447;28;19917;-90
2022/12/26 02:42:49;;;;;;;;;;;16.60;65.20;;;;;;5015141;28;19909;-89
2022/12/26 02:48:19;;;;;;;;;;;16.60;65.40;;;;;;5015659;28;20052;-89
2022/12/26 03:13:35;;;;;;;;;;;16.80;65.70;;;;;;5014854;28;19922;-89
2022/12/26 03:18:49;;;;;;;;;;;16.80;65.60;;;;;;5014378;28;19924;-89
2022/12/26 03:21:18;;;;;;;;;;;16.70;65.40;;;;;;5013749;28;19913;-91
2022/12/26 03:23:44;;;;;;;;;;;16.70;65.40;;;;;;5015181;28;19909;-91
2022/12/26 03:31:44;;;;;;;;;;;16.60;65.60;;;;;;5018778;28;19928;-90
2022/12/26 03:34:18;;;;;;;;;;;16.50;65.40;;;;;;5012404;28;19914;-90
2022/12/26 03:36:52;;;;;;;;;;;16.50;65.30;;;;;;5015680;28;20357;-89
2022/12/26 04:19:25;;;;;;;;;;;15.90;65.80;;;;;;5015582;28;19924;-90
2022/12/26 04:44:11;;;;;;;;;;;16.10;66.00;;;;;;5016636;28;19967;-90
2022/12/26 04:46:41;;;;;;;;;;;16.10;65.90;;;;;;5012422;28;19916;-90
2022/12/26 04:51:56;;;;;;;;;;;16.20;65.70;;;;;;5012781;28;20310;-89
2022/12/26 04:54:22;;;;;;;;;;;16.20;65.70;;;;;;5016524;28;19924;-90
2022/12/26 04:56:48;;;;;;;;;;;16.20;65.60;;;;;;5012848;28;20011;-90
2022/12/26 04:59:13;;;;;;;;;;;16.20;65.50;;;;;;5014829;28;19968;-89
2022/12/26 05:09:55;;;;;;;;;;;16.30;65.50;;;;;;5014353;28;19924;-90
2022/12/26 05:12:20;;;;;;;;;;;16.30;65.50;;;;;;5010656;28;19914;-90
2022/12/26 05:14:46;;;;;;;;;;;16.30;65.40;;;;;;5012233;28;20024;-89
2022/12/26 05:30:57;;;;;;;;;;;16.30;65.30;;;;;;5016646;28;19936;-90
2022/12/26 05:36:07;;;;;;;;;;;16.30;65.20;;;;;;5018435;28;20289;-90
2022/12/26 05:38:33;;;;;;;;;;;16.30;65.20;;;;;;5014651;28;19909;-90
2022/12/26 05:40:58;;;;;;;;;;;16.30;65.10;;;;;;5016060;28;19917;-90
2022/12/26 05:43:24;;;;;;;;;;;16.30;64.90;;;;;;5014384;28;19949;-91
2022/12/26 05:45:49;;;;;;;;;;;16.30;65.00;;;;;;5018088;28;20292;-90
2022/12/26 05:48:14;;;;;;;;;;;16.30;65.00;;;;;;5014244;28;20300;-91
2022/12/26 05:50:40;;;;;;;;;;;16.30;65.00;;;;;;5015898;28;20016;-90
2022/12/26 05:53:05;;;;;;;;;;;16.30;65.00;;;;;;5014098;28;19991;-89
2022/12/26 05:55:31;;;;;;;;;;;16.30;65.10;;;;;;5016276;28;20021;-90
2022/12/26 05:57:58;;;;;;;;;;;16.30;65.10;;;;;;5014199;28;19947;-91
2022/12/26 06:00:24;;;;;;;;;;;16.30;65.10;;;;;;5019314;28;19954;-91
2022/12/26 06:02:49;;;;;;;;;;;16.40;65.20;;;;;;5014660;28;19909;-91
2022/12/26 06:05:15;;;;;;;;;;;16.30;65.10;;;;;;5017857;28;19917;-90
2022/12/26 06:07:40;;;;;;;;;;;16.40;65.10;;;;;;5017599;28;19959;-91
2022/12/26 06:10:06;;;;;;;;;;;16.40;65.10;;;;;;5017844;28;19918;-91
2022/12/26 06:12:32;;;;;;;;;;;16.40;65.00;;;;;;5015059;28;19914;-92
2022/12/26 06:14:58;;;;;;;;;;;16.40;65.30;;;;;;5015254;28;19921;-90
2022/12/26 06:17:23;;;;;;;;;;;16.40;65.00;;;;;;5015151;28;20273;-91
2022/12/26 06:19:49;;;;;;;;;;;16.40;65.00;;;;;;5017277;28;19953;-90
2022/12/26 06:22:14;;;;;;;;;;;16.40;65.00;;;;;;5013886;28;20383;-89
2022/12/26 06:24:39;;;;;;;;;;;16.30;64.70;;;;;;5019805;28;20004;-89
2022/12/26 06:27:05;;;;;;;;;;;16.30;64.60;;;;;;5018764;28;19924;-91
2022/12/26 06:29:30;;;;;;;;;;;16.20;64.40;;;;;;5011340;28;19925;-90
2022/12/26 06:31:56;;;;;;;;;;;16.20;64.30;;;;;;5019916;28;20017;-90
2022/12/26 06:34:21;;;;;;;;;;;16.10;64.20;;;;;;5015313;28;20275;-90
2022/12/26 06:36:47;;;;;;;;;;;16.00;64.40;;;;;;5015670;28;19914;-90
2022/12/26 06:39:12;;;;;;;;;;;16.10;64.60;;;;;;5014680;28;20016;-90
2022/12/26 06:41:38;;;;;;;;;;;16.00;64.70;;;;;;5015411;28;19913;-90
2022/12/26 06:44:03;;;;;;;;;;;16.10;64.90;;;;;;5013354;28;19917;-89
2022/12/26 06:46:29;;;;;;;;;;;16.10;65.00;;;;;;5013471;28;19952;-90
2022/12/26 06:48:54;;;;;;;;;;;16.20;65.00;;;;;;5014651;28;20415;-90
2022/12/26 06:51:24;;;;;;;;;;;16.20;64.90;;;;;;5014276;28;19921;-89
2022/12/26 06:53:50;;;;;;;;;;;16.20;65.00;;;;;;5016980;28;19917;-90
2022/12/26 06:56:17;;;;;;;;;;;16.20;65.00;;;;;;5015999;28;20238;-89
2022/12/26 06:58:43;;;;;;;;;;;16.30;64.90;;;;;;5013285;28;19910;-91
2022/12/26 07:01:10;;;;;;;;;;;16.30;65.00;;;;;;5013396;28;19932;-89
2022/12/26 07:03:35;;;;;;;;;;;16.30;64.90;;;;;;5012898;28;20436;-91
2022/12/26 07:06:05;;;;;;;;;;;16.30;64.90;;;;;;5012893;28;20020;-89
2022/12/26 07:08:31;;;;;;;;;;;16.30;64.70;;;;;;5016898;28;19956;-90
2022/12/26 07:10:57;;;;;;;;;;;16.30;64.70;;;;;;5014050;28;19956;-89
2022/12/26 07:13:22;;;;;;;;;;;16.30;64.60;;;;;;5014240;28;19913;-90
2022/12/26 07:15:47;;;;;;;;;;;16.30;64.70;;;;;;5014613;28;19926;-90
2022/12/26 07:18:13;;;;;;;;;;;16.30;64.60;;;;;;5013833;28;19910;-90
2022/12/26 07:20:38;;;;;;;;;;;16.30;64.80;;;;;;5012661;28;19924;-89
2022/12/26 07:23:04;;;;;;;;;;;16.30;64.80;;;;;;5014057;28;19972;-89
2022/12/26 07:25:29;;;;;;;;;;;16.30;64.90;;;;;;5012299;28;20402;-92
2022/12/26 07:27:55;;;;;;;;;;;16.30;64.90;;;;;;5012967;28;20009;-91
2022/12/26 07:30:20;;;;;;;;;;;16.40;64.90;;;;;;5014185;28;19922;-88
2022/12/26 07:32:46;;;;;;;;;;;16.40;64.70;;;;;;5015208;28;19917;-88
2022/12/26 07:35:11;;;;;;;;;;;16.40;64.70;;;;;;5019868;28;20383;-88
2022/12/26 07:37:37;;;;;;;;;;;16.40;64.70;;;;;;5017661;28;20368;-89
2022/12/26 07:40:02;;;;;;;;;;;16.30;64.80;;;;;;5014051;28;19922;-89
2022/12/26 07:42:28;;;;;;;;;;;16.40;64.70;;;;;;5013031;28;19953;-90
2022/12/26 07:44:53;;;;;;;;;;;16.30;64.60;;;;;;5014816;28;19917;-89
2022/12/26 07:47:19;;;;;;;;;;;16.30;64.60;;;;;;5014722;28;19916;-89
2022/12/26 07:49:44;;;;;;;;;;;16.30;64.70;;;;;;5012656;28;19917;-90
2022/12/26 07:52:10;;;;;;;;;;;16.20;64.60;;;;;;5013689;28;19929;-89
2022/12/26 07:54:35;;;;;;;;;;;16.30;64.70;;;;;;5015564;28;19918;-90
2022/12/26 07:57:01;;;;;;;;;;;16.20;64.50;;;;;;5012113;28;20332;-91
2022/12/26 07:59:26;;;;;;;;;;;16.20;64.50;;;;;;5016730;28;19948;-90
2022/12/26 08:01:52;;;;;;;;;;;16.20;64.70;;;;;;5017553;28;20368;-89
2022/12/26 08:04:17;;;;;;;;;;;16.20;64.70;;;;;;5018279;28;19922;-90
2022/12/26 08:06:44;;;;;;;;;;;16.20;64.80;;;;;;5014074;28;20341;-91
2022/12/26 08:09:14;;;;;;;;;;;16.30;64.70;;;;;;5018240;28;20008;-90
2022/12/26 08:11:40;;;;;;;;;;;16.30;64.80;;;;;;5012973;28;19992;-90
2022/12/26 08:14:05;;;;;;;;;;;16.30;64.70;;;;;;5013533;28;19914;-91
2022/12/26 08:16:31;;;;;;;;;;;16.30;64.70;;;;;;5014872;28;19921;-89
2022/12/26 08:18:56;;;;;;;;;;;16.30;64.70;;;;;;5015156;28;19948;-91
2022/12/26 08:21:22;;;;;;;;;;;16.40;64.80;;;;;;5013834;28;19961;-90
2022/12/26 08:23:47;;;;;;;;;;;16.40;64.60;;;;;;5015247;28;19921;-89
2022/12/26 08:26:19;;;;;;;;;;;16.40;64.70;;;;;;5013549;28;20424;-89
2022/12/26 08:28:45;;;;;;;;;;;16.40;64.60;;;;;;5011907;28;20332;-90
2022/12/26 08:31:11;;;;;;;;;;;16.40;64.70;;;;;;5013248;28;19964;-89
2022/12/26 08:33:37;;;;;;;;;;;16.40;64.70;;;;;;5013646;28;19916;-91
2022/12/26 08:36:06;;;;;;;;;;;16.40;64.80;;;;;;5013049;28;20403;-91
2022/12/26 08:38:32;;;;;;;;;;;16.40;64.70;;;;;;5016294;28;19910;-90
2022/12/26 08:40:58;;;;;;;;;;;16.50;64.90;;;;;;5012918;28;20276;-89
2022/12/26 08:43:23;;;;;;;;;;;16.50;65.00;;;;;;5015003;28;19909;-90
2022/12/26 08:45:56;;;;;;;;;;;16.60;64.80;;;;;;5016101;28;19913;-88
2022/12/26 08:48:21;;;;;;;;;;;16.50;64.70;;;;;;5015597;28;19964;-91
2022/12/26 08:50:47;;;;;;;;;;;16.50;64.70;;;;;;5014167;28;19922;-89
2022/12/26 08:53:12;;;;;;;;;;;16.50;64.70;;;;;;5012689;28;19921;-90
2022/12/26 08:55:38;;;;;;;;;;;16.50;64.70;;;;;;5013117;28;20015;-90
2022/12/26 08:58:03;;;;;;;;;;;16.50;64.60;;;;;;5014301;28;19909;-89
2022/12/26 09:00:29;;;;;;;;;;;16.50;64.60;;;;;;5012599;28;20282;-91
2022/12/26 09:02:54;;;;;;;;;;;16.40;64.60;;;;;;5015992;28;19909;-90
2022/12/26 09:05:20;;;;;;;;;;;16.40;64.70;;;;;;5013819;28;20019;-90
2022/12/26 09:07:46;;;;;;;;;;;16.40;64.80;;;;;;5013011;28;19919;-90
2022/12/26 09:10:12;;;;;;;;;;;16.40;64.80;;;;;;5012076;28;20072;-90
2022/12/26 09:12:37;;;;;;;;;;;16.40;64.80;;;;;;5014153;28;20000;-88
2022/12/26 09:15:03;;;;;;;;;;;16.40;64.70;;;;;;5013524;28;19925;-91
2022/12/26 09:17:28;;;;;;;;;;;16.30;64.70;;;;;;5014120;28;19916;-89
2022/12/26 09:19:54;;;;;;;;;;;16.40;65.00;;;;;;5013493;28;19917;-89
2022/12/26 09:25:03;;;;;;;;;;;16.50;65.00;;;;;;5014920;28;19995;-88
2022/12/26 09:27:29;;;;;;;;;;;16.50;65.10;;;;;;5014315;28;19909;-89
2022/12/26 09:29:54;;;;;;;;;;;16.60;65.10;;;;;;5014632;28;19964;-90
2022/12/26 09:32:19;;;;;;;;;;;16.60;65.10;;;;;;5011514;28;20356;-90
2022/12/26 09:34:47;;;;;;;;;;;16.60;65.10;;;;;;5012855;28;19906;-90
2022/12/26 09:37:12;;;;;;;;;;;16.60;65.00;;;;;;5012567;28;19984;-88
2022/12/26 09:39:38;;;;;;;;;;;16.60;65.20;;;;;;5012287;28;19972;-90
2022/12/26 09:42:21;;;;;;;;;;;16.70;65.20;;;;;;5013176;28;20300;-90
2022/12/26 09:45:02;;;;;;;;;;;16.70;65.20;;;;;;5012887;28;19957;-89
2022/12/26 09:47:45;;;;;;;;;;;16.90;66.00;;;;;;5014491;28;20376;-91
2022/12/26 09:50:13;;;;;;;;;;;17.20;66.90;;;;;;5017077;28;19971;-90
2022/12/26 09:52:39;;;;;;;;;;;17.50;67.10;;;;;;5014356;28;19928;-91
2022/12/26 09:55:13;;;;;;;;;;;17.90;67.50;;;;;;5012720;28;20343;-89
2022/12/26 09:57:41;;;;;;;;;;;18.20;67.10;;;;;;5013188;28;19910;-91
2022/12/26 10:00:15;;;;;;;;;;;18.50;66.60;;;;;;5015399;28;19917;-89
2022/12/26 10:02:41;;;;;;;;;;;18.70;66.40;;;;;;5012706;28;20269;-89
2022/12/26 10:05:06;;;;;;;;;;;18.90;65.90;;;;;;5016831;28;20361;-92
2022/12/26 10:07:39;;;;;;;;;;;18.90;64.90;;;;;;5017215;28;20004;-92
2022/12/26 10:10:04;;;;;;;;;;;18.90;64.90;;;;;;5018281;28;20304;-91
2022/12/26 10:12:36;;;;;;;;;;;18.80;64.90;;;;;;5016009;28;19913;-91
2022/12/26 10:15:09;;;;;;;;;;;18.80;64.40;;;;;;5020168;28;19918;-89
2022/12/26 10:17:55;;;;;;;;;;;18.80;64.40;;;;;;5016549;28;20031;-91
2022/12/26 10:20:36;;;;;;;;;;;18.80;64.20;;;;;;5017725;28;20278;-91
2022/12/26 10:23:09;;;;;;;;;;;18.80;64.70;;;;;;5016240;28;20059;-90
2022/12/26 10:25:41;;;;;;;;;;;19.10;65.50;;;;;;5015200;28;19992;-92
2022/12/26 10:28:09;;;;;;;;;;;19.30;65.20;;;;;;5016434;28;19913;-90
2022/12/26 10:30:38;;;;;;;;;;;19.40;65.30;;;;;;5014841;28;19925;-91
2022/12/26 10:33:10;;;;;;;;;;;19.50;64.50;;;;;;5016595;28;19909;-92
2022/12/26 10:35:43;;;;;;;;;;;19.50;64.80;;;;;;5018638;28;20361;-91
2022/12/26 10:38:12;;;;;;;;;;;19.70;65.10;;;;;;5016362;28;19913;-91
2022/12/26 10:40:43;;;;;;;;;;;19.90;65.20;;;;;;5020691;28;19992;-90
2022/12/26 10:43:24;;;;;;;;;;;20.10;64.50;;;;;;5014892;28;19917;-90
2022/12/26 10:45:57;;;;;;;;;;;20.10;64.00;;;;;;5015180;28;19917;-90
2022/12/26 10:48:24;;;;;;;;;;;20.00;63.80;;;;;;5015308;28;20004;-91
2022/12/26 10:50:50;;;;;;;;;;;19.80;62.90;;;;;;5014035;28;19925;-90
2022/12/26 10:53:16;;;;;;;;;;;19.70;63.00;;;;;;5019335;28;19979;-93
2022/12/26 10:55:41;;;;;;;;;;;19.60;63.10;;;;;;5013971;28;19917;-92
2022/12/26 10:58:26;;;;;;;;;;;19.40;62.80;;;;;;5016152;28;19909;-92
2022/12/26 11:00:51;;;;;;;;;;;19.30;62.70;;;;;;5013825;28;19978;-90
2022/12/26 11:03:18;;;;;;;;;;;19.20;63.50;;;;;;5015058;28;19914;-91
2022/12/26 11:05:46;;;;;;;;;;;19.20;63.60;;;;;;5016031;28;20378;-92
2022/12/26 11:08:11;;;;;;;;;;;19.20;63.60;;;;;;5014084;28;19968;-91
2022/12/26 11:10:37;;;;;;;;;;;19.10;63.00;;;;;;5012932;28;20323;-92
2022/12/26 11:13:05;;;;;;;;;;;18.90;63.40;;;;;;5014910;28;19916;-92
2022/12/26 11:15:33;;;;;;;;;;;18.90;63.30;;;;;;5016906;28;19940;-92
2022/12/26 11:18:18;;;;;;;;;;;18.80;63.80;;;;;;5014122;28;19909;-90
2022/12/26 11:20:44;;;;;;;;;;;18.80;63.90;;;;;;5015536;28;19918;-90
2022/12/26 11:23:19;;;;;;;;;;;18.70;63.60;;;;;;5017056;28;19953;-93
2022/12/26 11:25:47;;;;;;;;;;;18.70;63.60;;;;;;5015126;28;19917;-89
2022/12/26 11:28:22;;;;;;;;;;;18.60;63.50;;;;;;5015180;28;20275;-93
2022/12/26 11:30:48;;;;;;;;;;;18.50;63.60;;;;;;5015272;28;19937;-92
2022/12/26 11:33:22;;;;;;;;;;;18.50;63.90;;;;;;5013568;28;19910;-93
2022/12/26 11:35:50;;;;;;;;;;;18.40;64.10;;;;;;5016261;28;20438;-93
2022/12/26 11:38:33;;;;;;;;;;;18.40;63.90;;;;;;5015993;28;19910;-93
2022/12/26 11:41:31;;;;;;;;;;;18.30;63.60;;;;;;5013896;28;20060;-92
2022/12/26 11:44:09;;;;;;;;;;;18.20;63.80;;;;;;5009061;28;19918;-91
2022/12/26 11:46:40;;;;;;;;;;;18.10;63.90;;;;;;5013038;28;19917;-93
2022/12/26 11:49:09;;;;;;;;;;;18.00;63.90;;;;;;5020399;28;19918;-90
2022/12/26 11:51:40;;;;;;;;;;;18.00;63.90;;;;;;5015006;28;19918;-92
2022/12/26 11:54:19;;;;;;;;;;;18.00;63.90;;;;;;5015962;28;20544;-92
2022/12/26 11:56:45;;;;;;;;;;;18.00;63.90;;;;;;5015831;28;19999;-91
2022/12/26 11:59:18;;;;;;;;;;;18.00;63.90;;;;;;5014586;28;19987;-91
2022/12/26 12:01:44;;;;;;;;;;;17.90;63.70;;;;;;5014906;28;19939;-92
2022/12/26 12:04:09;;;;;;;;;;;17.80;63.50;;;;;;5012833;28;19918;-92
2022/12/26 12:06:35;;;;;;;;;;;17.80;63.20;;;;;;5014715;28;20352;-90
2022/12/26 12:09:00;;;;;;;;;;;17.80;63.40;;;;;;5014604;28;20008;-90
2022/12/26 12:11:26;;;;;;;;;;;17.70;63.10;;;;;;5016455;28;19917;-91
2022/12/26 12:14:10;;;;;;;;;;;17.70;63.70;;;;;;5014698;28;19979;-91
2022/12/26 12:16:41;;;;;;;;;;;17.60;63.50;;;;;;5013566;28;19914;-90
2022/12/26 12:19:15;;;;;;;;;;;17.60;64.00;;;;;;5015406;28;20274;-92
2022/12/26 12:21:45;;;;;;;;;;;17.70;64.50;;;;;;5013186;28;19945;-89
2022/12/26 12:24:21;;;;;;;;;;;17.80;64.30;;;;;;5017193;28;19918;-93
2022/12/26 12:27:00;;;;;;;;;;;17.80;64.20;;;;;;5018080;28;20383;-93
2022/12/26 12:29:31;;;;;;;;;;;17.80;63.60;;;;;;5012654;28;19961;-93
2022/12/26 12:32:04;;;;;;;;;;;17.80;63.90;;;;;;5014412;28;19922;-89
2022/12/26 12:34:34;;;;;;;;;;;18.00;63.90;;;;;;5014391;28;19924;-91
2022/12/26 12:37:04;;;;;;;;;;;18.00;63.90;;;;;;5013050;28;19968;-90
2022/12/26 12:39:36;;;;;;;;;;;18.00;63.60;;;;;;5014819;28;20257;-89
2022/12/26 12:42:01;;;;;;;;;;;18.00;63.90;;;;;;5016960;28;20272;-91
2022/12/26 12:44:45;;;;;;;;;;;18.10;63.90;;;;;;5015169;28;19917;-92
2022/12/26 12:47:22;;;;;;;;;;;18.10;63.90;;;;;;5014255;28;20387;-92
2022/12/26 12:50:06;;;;;;;;;;;18.10;63.80;;;;;;5012597;28;19936;-90
2022/12/26 12:52:32;;;;;;;;;;;18.10;63.50;;;;;;5016300;28;19975;-91
2022/12/26 12:55:13;;;;;;;;;;;18.10;63.80;;;;;;5013889;28;19987;-92
2022/12/26 12:57:49;;;;;;;;;;;18.20;63.60;;;;;;5013968;28;19914;-89
2022/12/26 13:00:14;;;;;;;;;;;18.20;63.70;;;;;;5014837;28;20384;-91
2022/12/26 13:02:47;;;;;;;;;;;18.20;63.30;;;;;;5012470;28;19952;-92
2022/12/26 13:05:16;;;;;;;;;;;18.20;63.50;;;;;;5012166;28;20090;-91
2022/12/26 13:07:45;;;;;;;;;;;18.20;63.10;;;;;;5013216;28;20376;-92
2022/12/26 13:10:34;;;;;;;;;;;18.10;63.10;;;;;;5012036;28;19939;-92
2022/12/26 13:13:17;;;;;;;;;;;17.90;62.70;;;;;;5012992;28;19957;-92
2022/12/26 13:15:45;;;;;;;;;;;17.60;62.30;;;;;;5013296;28;20379;-89
2022/12/26 13:18:12;;;;;;;;;;;17.30;62.50;;;;;;5015404;28;20519;-90
2022/12/26 13:20:48;;;;;;;;;;;17.00;63.20;;;;;;5013602;28;20286;-88
2022/12/26 13:26:14;;;;;;;;;;;16.70;63.50;;;;;;5013356;28;20063;-89
2022/12/26 13:28:53;;;;;;;;;;;16.50;64.00;;;;;;5015016;28;19956;-92
2022/12/26 13:31:19;;;;;;;;;;;16.40;64.40;;;;;;5013286;28;19922;-92
2022/12/26 13:33:44;;;;;;;;;;;16.20;64.50;;;;;;5012206;28;19910;-92
2022/12/26 13:36:30;;;;;;;;;;;16.00;64.20;;;;;;5011584;28;19921;-89
2022/12/26 13:38:55;;;;;;;;;;;15.80;63.90;;;;;;5013479;28;19920;-89
2022/12/26 13:44:22;;;;;;;;;;;15.70;64.20;;;;;;5018563;28;19928;-89
2022/12/26 13:46:47;;;;;;;;;;;15.50;64.50;;;;;;5015705;28;20288;-90
2022/12/26 13:49:40;;;;;;;;;;;15.50;64.70;;;;;;5016931;28;19914;-88
2022/12/26 13:52:18;;;;;;;;;;;15.50;64.80;;;;;;5016901;28;19925;-90
2022/12/26 13:54:50;;;;;;;;;;;15.40;65.00;;;;;;5014981;28;19917;-91
2022/12/26 13:57:35;;;;;;;;;;;15.40;64.90;;;;;;5016491;28;19916;-88
2022/12/26 14:00:03;;;;;;;;;;;15.30;64.70;;;;;;5017500;28;20001;-91
2022/12/26 14:02:47;;;;;;;;;;;15.20;64.70;;;;;;5015664;28;19916;-91
2022/12/26 14:05:31;;;;;;;;;;;15.20;64.60;;;;;;5015957;28;19986;-89
2022/12/26 14:08:06;;;;;;;;;;;15.10;64.40;;;;;;5020894;28;19909;-91
2022/12/26 14:10:31;;;;;;;;;;;15.10;64.20;;;;;;5015757;28;19918;-90
2022/12/26 14:13:16;;;;;;;;;;;15.00;64.30;;;;;;5014309;28;19928;-90
2022/12/26 14:16:00;;;;;;;;;;;15.10;64.30;;;;;;5015586;28;19918;-90
2022/12/26 14:18:36;;;;;;;;;;;15.10;64.20;;;;;;5016104;28;19909;-90
2022/12/26 14:21:20;;;;;;;;;;;15.00;63.60;;;;;;5014222;28;20034;-90
2022/12/26 14:23:52;;;;;;;;;;;14.80;63.20;;;;;;5016518;28;19909;-90
2022/12/26 14:26:39;;;;;;;;;;;14.60;62.70;;;;;;5014455;28;19925;-89
2022/12/26 14:29:07;;;;;;;;;;;14.40;62.60;;;;;;5015669;28;19913;-89
2022/12/26 14:31:44;;;;;;;;;;;14.20;62.60;;;;;;5016150;28;19921;-89
2022/12/26 14:34:29;;;;;;;;;;;14.00;62.70;;;;;;5016938;28;19922;-91
2022/12/26 14:36:57;;;;;;;;;;;13.90;62.40;;;;;;5015431;28;20334;-90
2022/12/26 14:39:35;;;;;;;;;;;13.70;62.70;;;;;;5015854;28;19917;-90
2022/12/26 14:44:51;;;;;;;;;;;13.50;62.90;;;;;;5018360;28;19932;-89
2022/12/26 14:47:35;;;;;;;;;;;13.30;62.80;;;;;;5015421;28;20245;-90
2022/12/26 14:50:24;;;;;;;;;;;13.30;63.00;;;;;;5013965;28;19925;-89
2022/12/26 14:52:49;;;;;;;;;;;13.30;63.20;;;;;;4968292;28;19921;-90
2022/12/26 14:55:34;;;;;;;;;;;13.20;63.30;;;;;;5014927;28;19916;-90
2022/12/26 14:58:22;;;;;;;;;;;13.20;63.60;;;;;;5016060;28;19925;-90
2022/12/26 15:00:48;;;;;;;;;;;13.30;63.80;;;;;;5017562;28;19913;-91
2022/12/26 15:03:13;;;;;;;;;;;13.30;63.90;;;;;;5013312;28;19921;-90
2022/12/26 15:05:41;;;;;;;;;;;13.30;63.90;;;;;;5013114;28;19910;-90
2022/12/26 15:08:45;;;;;;;;;;;13.30;64.00;;;;;;5014408;28;19914;-90
2022/12/26 15:11:20;;;;;;;;;;;13.40;63.90;;;;;;4918257;29;19941;-90
2022/12/26 15:13:49;;;;;;;;;;;13.30;63.70;;;;;;4935483;29;20263;-91
2022/12/26 15:16:19;;;;;;;;;;;13.30;63.60;;;;;;4984871;28;19961;-90
2022/12/26 15:18:50;;;;;;;;;;;13.30;63.50;;;;;;5013481;28;19918;-91
2022/12/26 15:21:24;;;;;;;;;;;13.20;63.20;;;;;;5012767;28;19919;-91
2022/12/26 15:24:12;;;;;;;;;;;13.10;63.00;;;;;;5012906;28;20048;-90
2022/12/26 15:26:49;;;;;;;;;;;13.10;62.90;;;;;;4999489;28;19963;-91
2022/12/26 15:29:17;;;;;;;;;;;13.00;62.80;;;;;;5013655;28;20284;-91
2022/12/26 15:32:02;;;;;;;;;;;12.90;62.60;;;;;;5012100;28;20513;-90
2022/12/26 15:34:37;;;;;;;;;;;12.80;62.70;;;;;;5014064;28;19957;-91
2022/12/26 15:37:02;;;;;;;;;;;12.80;62.80;;;;;;5013645;28;19913;-91
2022/12/26 15:39:33;;;;;;;;;;;12.70;62.70;;;;;;5014334;28;19925;-92
2022/12/26 15:42:21;;;;;;;;;;;12.70;62.50;;;;;;5013631;28;19923;-91
2022/12/26 15:44:47;;;;;;;;;;;12.60;62.60;;;;;;4976432;28;19913;-90
2022/12/26 15:47:27;;;;;;;;;;;12.60;62.80;;;;;;5012449;28;20443;-89
2022/12/26 15:50:05;;;;;;;;;;;12.60;62.90;;;;;;5013589;28;19964;-90
2022/12/26 15:52:50;;;;;;;;;;;12.60;63.00;;;;;;5011992;28;19969;-89
2022/12/26 15:55:25;;;;;;;;;;;12.50;63.10;;;;;;4963390;28;20794;-90
2022/12/26 15:57:56;;;;;;;;;;;12.60;63.10;;;;;;5014484;28;19953;-90
2022/12/26 16:00:23;;;;;;;;;;;12.50;63.10;;;;;;5013484;28;20018;-91
2022/12/26 16:03:07;;;;;;;;;;;12.50;63.10;;;;;;5011930;28;19926;-90
2022/12/26 16:05:36;;;;;;;;;;;12.50;63.10;;;;;;5012706;28;20357;-90
2022/12/26 16:08:20;;;;;;;;;;;12.40;63.10;;;;;;5013789;28;19955;-91
2022/12/26 16:10:46;;;;;;;;;;;12.40;63.10;;;;;;5011228;28;20312;-90
2022/12/26 16:13:11;;;;;;;;;;;12.40;63.10;;;;;;5011738;28;20387;-91
2022/12/26 16:15:47;;;;;;;;;;;12.30;63.00;;;;;;5012887;28;20439;-90
2022/12/26 16:18:14;;;;;;;;;;;12.30;62.90;;;;;;5006070;28;19918;-90
2022/12/26 16:23:26;;;;;;;;;;;12.30;62.90;;;;;;5011804;28;20015;-89
2022/12/26 16:25:53;;;;;;;;;;;12.20;63.00;;;;;;5002179;28;19932;-91
2022/12/26 16:28:21;;;;;;;;;;;12.20;63.00;;;;;;5010973;28;19913;-91
2022/12/26 16:30:47;;;;;;;;;;;12.20;63.00;;;;;;5009343;28;19918;-91
2022/12/26 16:33:13;;;;;;;;;;;12.20;62.90;;;;;;5009806;28;19909;-89
2022/12/26 16:35:40;;;;;;;;;;;12.20;62.90;;;;;;5010176;28;20382;-89
2022/12/26 16:38:07;;;;;;;;;;;12.20;62.90;;;;;;4992255;28;19917;-90
2022/12/26 16:40:40;;;;;;;;;;;12.10;63.00;;;;;;4992675;28;19917;-90
2022/12/26 16:43:20;;;;;;;;;;;12.20;63.10;;;;;;5008568;28;20331;-90
2022/12/26 16:45:48;;;;;;;;;;;12.20;63.20;;;;;;5003093;28;20384;-89
2022/12/26 16:48:14;;;;;;;;;;;12.30;63.40;;;;;;5011446;28;20444;-89
2022/12/26 16:50:45;;;;;;;;;;;12.30;63.50;;;;;;4995570;28;19964;-91
2022/12/26 16:53:14;;;;;;;;;;;12.30;63.50;;;;;;5009184;28;20384;-91